Terminal Aerodrome Forecast
Issued by NWS

Home | Current Version | Previous Version | Text Only | Print | Product List | Glossary On
Versions: 1 2 3 4 5 6 7 8 9 10 11 12 13 14 15 16 17 18 19 20 21 22 23 24 25 26 27 28 29 30 31 32
000
FTUS41 KBOX 260400 AAB
TAFBAF
TAF AMD
KBAF 260400Z 2604/2624 00000KT 5SM -SHRA BR SCT005 OVC010
     FM260600 VRB03KT 3/4SM BR VCSH OVC005
     FM261100 28004KT 2SM BR BKN060
     FM261400 28008KT P6SM SCT080
     FM261800 27012KT P6SM BKN040
     FM261900 27012G22KT P6SM BKN040
     FM262300 28011KT P6SM BKN035=

USA.gov is the U.S. government's official web portal to all federal, state and local government web resources and services.